Barfleur — FNIE — position and weather

sailwx.info

Track history (hours):
 
Tides and Currents Weather Stations Pressure Air Temp Water Temp Dewpoint Dewpoint Depression Visibility Wind Speed Wind Dir Waves Ship Positions

Barfleur

Operator: Brittany Ferries

Last reported at 2016-Feb-08 20:34 UTC. Time now 2016-Feb-08 21:16 UTC.
Position N 50°42' W 001°59'.

Length 158 m; draft 5 m.

Type: Passenger vessel. MMSI: 227289000.

Date/timePositionNaut miles runAvg speedWind from/ knotsBaromVisibWave heightAir tempDewpointWater temp
2016-Feb-08 20:34N 50°42' W 001°59'0 0.0
2016-Feb-08 19:34N 50°42' W 001°59'0 0.0
2016-Feb-08 18:34N 50°42' W 001°59'0 0.0
2016-Feb-08 17:34N 50°42' W 001°59'0 0.0
2016-Feb-08 16:33N 50°42' W 001°59'0 0.0
2016-Feb-08 15:34N 50°42' W 001°59'0 0.0
2016-Feb-08 14:34N 50°42' W 001°59'0 0.0
2016-Feb-08 13:33N 50°42' W 001°59'0 0.0
2016-Feb-08 12:34N 50°42' W 001°59'0 0.0
2016-Feb-08 11:34N 50°42' W 001°59'0 0.0
2016-Feb-08 10:33N 50°42' W 001°59'0 0.0
2016-Feb-08 09:34N 50°42' W 001°59'0 0.0
2016-Feb-08 08:34N 50°42' W 001°59'0 0.0
2016-Feb-08 07:34N 50°42' W 001°59'0 0.0
2016-Feb-08 06:34N 50°42' W 001°59'0 0.0
2016-Feb-08 05:34N 50°42' W 001°59'0 0.0
2016-Feb-08 04:34N 50°42' W 001°59'0 0.0
2016-Feb-08 03:33N 50°42' W 001°59'0 0.0
2016-Feb-08 02:33N 50°42' W 001°59'0 0.0
2016-Feb-08 01:33N 50°42' W 001°59'0 0.0
2016-Feb-08 00:33N 50°42' W 001°59'0 0.0
2016-Feb-07 23:34N 50°42' W 001°59'0 0.0
2016-Feb-07 22:34N 50°42' W 001°59'0 0.0
2016-Feb-07 21:33N 50°42' W 001°59'0 0.0
2016-Feb-07 20:34N 50°42' W 001°59'0 0.0
2016-Feb-07 19:33N 50°42' W 001°59'0 0.0
2016-Feb-07 18:34N 50°42' W 001°59'2 1.8
2016-Feb-07 17:33N 50°41' W 001°57'15 1.8
2016-Feb-07 09:14N 50°27' W 001°52'1217.2
2016-Feb-07 08:33N 50°39' W 001°54'5 5.1
2016-Feb-07 07:33N 50°42' W 001°59'0 0.0
2016-Feb-07 06:33N 50°42' W 001°59'0 0.0
2016-Feb-07 05:33N 50°42' W 001°59'0 0.0
2016-Feb-07 04:33N 50°42' W 001°59'0 0.0
2016-Feb-07 03:33N 50°42' W 001°59'0 0.0
2016-Feb-07 02:33N 50°42' W 001°59'0 0.0
2016-Feb-07 01:33N 50°42' W 001°59'0 0.0
2016-Feb-07 00:33N 50°42' W 001°59'0 0.0
2016-Feb-06 23:33N 50°42' W 001°59'0 0.0
2016-Feb-06 22:33N 50°42' W 001°59'0 0.0
2016-Feb-06 21:33N 50°42' W 001°59'0 0.0
2016-Feb-06 20:33N 50°42' W 001°59'0 0.0
2016-Feb-06 19:33N 50°42' W 001°59'0 0.0
2016-Feb-06 18:33N 50°42' W 001°59'0 0.0
2016-Feb-06 17:33N 50°42' W 001°59'0 0.0
2016-Feb-06 16:33N 50°42' W 001°59'0 0.0
2016-Feb-06 15:33N 50°42' W 001°59'0 0.0
2016-Feb-06 14:33N 50°42' W 001°59'0 0.0
2016-Feb-06 13:33N 50°42' W 001°59'0 0.0
2016-Feb-06 12:33N 50°42' W 001°59'0 0.0
2016-Feb-06 11:33N 50°42' W 001°59'0 0.0
2016-Feb-06 10:33N 50°42' W 001°59'0 0.0
2016-Feb-06 09:33N 50°42' W 001°59'0 0.0
2016-Feb-06 08:33N 50°42' W 001°59'0 0.0
2016-Feb-06 07:33N 50°42' W 001°59'0 0.0
2016-Feb-06 06:33N 50°42' W 001°59'0 0.0
2016-Feb-06 05:33N 50°42' W 001°59'0 0.0
2016-Feb-06 04:33N 50°42' W 001°59'0 0.0
2016-Feb-06 03:33N 50°42' W 001°59'0 0.0
2016-Feb-06 02:33N 50°42' W 001°59'0 0.0
2016-Feb-06 01:33N 50°42' W 001°59'0 0.0
2016-Feb-06 00:33N 50°42' W 001°59'0 0.0
2016-Feb-05 23:33N 50°42' W 001°59'0 0.0
2016-Feb-05 22:33N 50°42' W 001°59'0 0.2
2016-Feb-05 21:33N 50°42' W 001°59'1312.7
2016-Feb-05 20:33N 50°31' W 001°52'1 0.1
2016-Feb-05 09:34N 50°30' W 001°52'1313.3
2016-Feb-05 08:34N 50°42' W 001°59'1 0.5
2016-Feb-05 07:34N 50°42' W 001°59'0 0.0
2016-Feb-05 06:34N 50°42' W 001°59'0 0.0
2016-Feb-05 05:34N 50°42' W 001°59'0 0.0
2016-Feb-05 04:34N 50°42' W 001°59'0 0.0
2016-Feb-05 03:34N 50°42' W 001°59'0 0.0
2016-Feb-05 02:34N 50°42' W 001°59'0 0.0
2016-Feb-05 01:34N 50°42' W 001°59'0 0.0
2016-Feb-05 00:34N 50°42' W 001°59'0 0.0
2016-Feb-04 23:33N 50°42' W 001°59'0 0.0
2016-Feb-04 22:33N 50°42' W 001°59'2 1.6
2016-Feb-04 21:34N 50°42' W 001°57'1514.7
2016-Feb-04 20:33N 50°28' W 001°51'4 0.4
2016-Feb-04 09:34N 50°32' W 001°53'1111.4
2016-Feb-04 08:33N 50°42' W 001°59'0 0.0
2016-Feb-04 07:33N 50°42' W 001°59'1 1.4
2016-Feb-04 06:33N 50°42' W 001°57'1313.4
2016-Feb-04 05:33N 50°29' W 001°51'2 0.1
2016-Feb-03 09:29N 50°28' W 001°51'1516.1
2016-Feb-03 08:34N 50°42' W 001°57'1 1.3
2016-Feb-03 07:34N 50°42' W 001°59'1 0.5
2016-Feb-03 06:34N 50°42' W 001°59'1414.3
2016-Feb-03 05:33N 50°29' W 001°51'2 0.1
2016-Feb-02 09:14N 50°29' W 001°54'1217.3
2016-Feb-02 08:34N 50°41' W 001°56'3 2.8
2016-Feb-02 07:34N 50°42' W 001°59'0 0.0
2016-Feb-02 06:34N 50°42' W 001°59'0 0.0
2016-Feb-02 05:34N 50°42' W 001°59'0 0.0
2016-Feb-02 04:34N 50°42' W 001°59'0 0.0
2016-Feb-02 03:34N 50°42' W 001°59'0 0.0
2016-Feb-02 02:34N 50°42' W 001°59'0 0.0
2016-Feb-02 01:34N 50°42' W 001°59'0 0.0
2016-Feb-02 00:34N 50°42' W 001°59'0 0.0
2016-Feb-01 23:34N 50°42' W 001°59'0 0.0
2016-Feb-01 22:33N 50°42' W 001°59'1 1.0
2016-Feb-01 21:33N 50°42' W 001°58'12 1.0
2016-Feb-01 09:22N 50°30' W 001°57'1214.8
2016-Feb-01 08:34N 50°42' W 001°57'1 1.5
2016-Feb-01 07:34N 50°42' W 001°59'0 0.0
2016-Feb-01 06:33N 50°42' W 001°59'0 0.0
2016-Feb-01 05:33N 50°42' W 001°59'0 0.0
2016-Feb-01 04:34N 50°42' W 001°59'0 0.0
2016-Feb-01 03:33N 50°42' W 001°59'0 0.0
2016-Feb-01 02:34N 50°42' W 001°59'0 0.0
2016-Feb-01 01:34N 50°42' W 001°59'0 0.0
2016-Feb-01 00:33N 50°42' W 001°59'0 0.0
2016-Jan-31 23:34N 50°42' W 001°59'0 0.0
2016-Jan-31 22:34N 50°42' W 001°59'1 1.2
2016-Jan-31 21:34N 50°42' W 001°58'13 1.0
2016-Jan-31 09:16N 50°29' W 001°59'1116.1
2016-Jan-31 08:33N 50°41' W 001°56'3 2.8
2016-Jan-31 07:33N 50°42' W 001°59'0 0.0
2016-Jan-31 06:33N 50°42' W 001°59'0 0.0
2016-Jan-31 05:33N 50°42' W 001°59'0 0.0
2016-Jan-31 04:33N 50°42' W 001°59'0 0.0
2016-Jan-31 03:33N 50°42' W 001°59'0 0.0
2016-Jan-31 02:33N 50°42' W 001°59'0 0.0
2016-Jan-31 01:33N 50°42' W 001°59'0 0.0
2016-Jan-31 00:33N 50°42' W 001°59'0 0.0
2016-Jan-30 23:33N 50°42' W 001°59'0 0.0
2016-Jan-30 22:33N 50°42' W 001°59'0 0.1
2016-Jan-30 21:33N 50°42' W 001°60'1211.6
2016-Jan-30 20:33N 50°32' W 001°53'5 0.5
2016-Jan-30 09:30N 50°27' W 001°50'1516.1
2016-Jan-30 08:34N 50°41' W 001°57'2 1.9
2016-Jan-30 07:33N 50°42' W 001°59'0 0.0
2016-Jan-30 06:33N 50°42' W 001°59'0 0.0
2016-Jan-30 05:33N 50°42' W 001°59'0 0.0
2016-Jan-30 04:33N 50°42' W 001°59'0 0.0
2016-Jan-30 03:33N 50°42' W 001°59'0 0.0
2016-Jan-30 02:33N 50°42' W 001°59'0 0.0
2016-Jan-30 01:33N 50°42' W 001°59'0 0.0
2016-Jan-30 00:33N 50°42' W 001°59'0 0.0
2016-Jan-29 23:33N 50°42' W 001°59'0 0.0
2016-Jan-29 22:33N 50°42' W 001°59'0 0.1
2016-Jan-29 21:33N 50°42' W 001°60'  
Track history (hours):
 
Tides and Currents Weather Stations Pressure Air Temp Water Temp Dewpoint Dewpoint Depression Visibility Wind Speed Wind Dir Waves Ship Positions

Barfleur

Operator: Brittany Ferries

Last reported at 2016-Feb-08 20:34 UTC. Time now 2016-Feb-08 21:16 UTC.
Position N 50°42' W 001°59'.

Length 158 m; draft 5 m.

Type: Passenger vessel. MMSI: 227289000.

Date/timePositionNaut miles runAvg speedWind from/ knotsBaromVisibWave heightAir tempDewpointWater temp
2016-Feb-08 20:34N 50°42' W 001°59'0 0.0
2016-Feb-08 19:34N 50°42' W 001°59'0 0.0
2016-Feb-08 18:34N 50°42' W 001°59'0 0.0
2016-Feb-08 17:34N 50°42' W 001°59'0 0.0
2016-Feb-08 16:33N 50°42' W 001°59'0 0.0
2016-Feb-08 15:34N 50°42' W 001°59'0 0.0
2016-Feb-08 14:34N 50°42' W 001°59'0 0.0
2016-Feb-08 13:33N 50°42' W 001°59'0 0.0
2016-Feb-08 12:34N 50°42' W 001°59'0 0.0
2016-Feb-08 11:34N 50°42' W 001°59'0 0.0
2016-Feb-08 10:33N 50°42' W 001°59'0 0.0
2016-Feb-08 09:34N 50°42' W 001°59'0 0.0
2016-Feb-08 08:34N 50°42' W 001°59'0 0.0
2016-Feb-08 07:34N 50°42' W 001°59'0 0.0
2016-Feb-08 06:34N 50°42' W 001°59'0 0.0
2016-Feb-08 05:34N 50°42' W 001°59'0 0.0
2016-Feb-08 04:34N 50°42' W 001°59'0 0.0
2016-Feb-08 03:33N 50°42' W 001°59'0 0.0
2016-Feb-08 02:33N 50°42' W 001°59'0 0.0
2016-Feb-08 01:33N 50°42' W 001°59'0 0.0
2016-Feb-08 00:33N 50°42' W 001°59'0 0.0
2016-Feb-07 23:34N 50°42' W 001°59'0 0.0
2016-Feb-07 22:34N 50°42' W 001°59'0 0.0
2016-Feb-07 21:33N 50°42' W 001°59'0 0.0
2016-Feb-07 20:34N 50°42' W 001°59'0 0.0
2016-Feb-07 19:33N 50°42' W 001°59'0 0.0
2016-Feb-07 18:34N 50°42' W 001°59'2 1.8
2016-Feb-07 17:33N 50°41' W 001°57'15 1.8
2016-Feb-07 09:14N 50°27' W 001°52'1217.2
2016-Feb-07 08:33N 50°39' W 001°54'5 5.1
2016-Feb-07 07:33N 50°42' W 001°59'0 0.0
2016-Feb-07 06:33N 50°42' W 001°59'0 0.0
2016-Feb-07 05:33N 50°42' W 001°59'0 0.0
2016-Feb-07 04:33N 50°42' W 001°59'0 0.0
2016-Feb-07 03:33N 50°42' W 001°59'0 0.0
2016-Feb-07 02:33N 50°42' W 001°59'0 0.0
2016-Feb-07 01:33N 50°42' W 001°59'0 0.0
2016-Feb-07 00:33N 50°42' W 001°59'0 0.0
2016-Feb-06 23:33N 50°42' W 001°59'0 0.0
2016-Feb-06 22:33N 50°42' W 001°59'0 0.0
2016-Feb-06 21:33N 50°42' W 001°59'0 0.0
2016-Feb-06 20:33N 50°42' W 001°59'0 0.0
2016-Feb-06 19:33N 50°42' W 001°59'0 0.0
2016-Feb-06 18:33N 50°42' W 001°59'0 0.0
2016-Feb-06 17:33N 50°42' W 001°59'0 0.0
2016-Feb-06 16:33N 50°42' W 001°59'0 0.0
2016-Feb-06 15:33N 50°42' W 001°59'0 0.0
2016-Feb-06 14:33N 50°42' W 001°59'0 0.0
2016-Feb-06 13:33N 50°42' W 001°59'0 0.0
2016-Feb-06 12:33N 50°42' W 001°59'0 0.0
2016-Feb-06 11:33N 50°42' W 001°59'0 0.0
2016-Feb-06 10:33N 50°42' W 001°59'0 0.0
2016-Feb-06 09:33N 50°42' W 001°59'0 0.0
2016-Feb-06 08:33N 50°42' W 001°59'0 0.0
2016-Feb-06 07:33N 50°42' W 001°59'0 0.0
2016-Feb-06 06:33N 50°42' W 001°59'0 0.0
2016-Feb-06 05:33N 50°42' W 001°59'0 0.0
2016-Feb-06 04:33N 50°42' W 001°59'0 0.0
2016-Feb-06 03:33N 50°42' W 001°59'0 0.0
2016-Feb-06 02:33N 50°42' W 001°59'0 0.0
2016-Feb-06 01:33N 50°42' W 001°59'0 0.0
2016-Feb-06 00:33N 50°42' W 001°59'0 0.0
2016-Feb-05 23:33N 50°42' W 001°59'0 0.0
2016-Feb-05 22:33N 50°42' W 001°59'0 0.2
2016-Feb-05 21:33N 50°42' W 001°59'1312.7
2016-Feb-05 20:33N 50°31' W 001°52'1 0.1
2016-Feb-05 09:34N 50°30' W 001°52'1313.3
2016-Feb-05 08:34N 50°42' W 001°59'1 0.5
2016-Feb-05 07:34N 50°42' W 001°59'0 0.0
2016-Feb-05 06:34N 50°42' W 001°59'0 0.0
2016-Feb-05 05:34N 50°42' W 001°59'0 0.0
2016-Feb-05 04:34N 50°42' W 001°59'0 0.0
2016-Feb-05 03:34N 50°42' W 001°59'0 0.0
2016-Feb-05 02:34N 50°42' W 001°59'0 0.0
2016-Feb-05 01:34N 50°42' W 001°59'0 0.0
2016-Feb-05 00:34N 50°42' W 001°59'0 0.0
2016-Feb-04 23:33N 50°42' W 001°59'0 0.0
2016-Feb-04 22:33N 50°42' W 001°59'2 1.6
2016-Feb-04 21:34N 50°42' W 001°57'1514.7
2016-Feb-04 20:33N 50°28' W 001°51'4 0.4
2016-Feb-04 09:34N 50°32' W 001°53'1111.4
2016-Feb-04 08:33N 50°42' W 001°59'0 0.0
2016-Feb-04 07:33N 50°42' W 001°59'1 1.4
2016-Feb-04 06:33N 50°42' W 001°57'1313.4
2016-Feb-04 05:33N 50°29' W 001°51'2 0.1
2016-Feb-03 09:29N 50°28' W 001°51'1516.1
2016-Feb-03 08:34N 50°42' W 001°57'1 1.3
2016-Feb-03 07:34N 50°42' W 001°59'1 0.5
2016-Feb-03 06:34N 50°42' W 001°59'1414.3
2016-Feb-03 05:33N 50°29' W 001°51'2 0.1
2016-Feb-02 09:14N 50°29' W 001°54'1217.3
2016-Feb-02 08:34N 50°41' W 001°56'3 2.8
2016-Feb-02 07:34N 50°42' W 001°59'0 0.0
2016-Feb-02 06:34N 50°42' W 001°59'0 0.0
2016-Feb-02 05:34N 50°42' W 001°59'0 0.0
2016-Feb-02 04:34N 50°42' W 001°59'0 0.0
2016-Feb-02 03:34N 50°42' W 001°59'0 0.0
2016-Feb-02 02:34N 50°42' W 001°59'0 0.0
2016-Feb-02 01:34N 50°42' W 001°59'0 0.0
2016-Feb-02 00:34N 50°42' W 001°59'0 0.0
2016-Feb-01 23:34N 50°42' W 001°59'0 0.0
2016-Feb-01 22:33N 50°42' W 001°59'1 1.0
2016-Feb-01 21:33N 50°42' W 001°58'12 1.0
2016-Feb-01 09:22N 50°30' W 001°57'1214.8
2016-Feb-01 08:34N 50°42' W 001°57'1 1.5
2016-Feb-01 07:34N 50°42' W 001°59'0 0.0
2016-Feb-01 06:33N 50°42' W 001°59'0 0.0
2016-Feb-01 05:33N 50°42' W 001°59'0 0.0
2016-Feb-01 04:34N 50°42' W 001°59'0 0.0
2016-Feb-01 03:33N 50°42' W 001°59'0 0.0
2016-Feb-01 02:34N 50°42' W 001°59'0 0.0
2016-Feb-01 01:34N 50°42' W 001°59'0 0.0
2016-Feb-01 00:33N 50°42' W 001°59'0 0.0
2016-Jan-31 23:34N 50°42' W 001°59'0 0.0
2016-Jan-31 22:34N 50°42' W 001°59'1 1.2
2016-Jan-31 21:34N 50°42' W 001°58'13 1.0
2016-Jan-31 09:16N 50°29' W 001°59'1116.1
2016-Jan-31 08:33N 50°41' W 001°56'3 2.8
2016-Jan-31 07:33N 50°42' W 001°59'0 0.0
2016-Jan-31 06:33N 50°42' W 001°59'0 0.0
2016-Jan-31 05:33N 50°42' W 001°59'0 0.0
2016-Jan-31 04:33N 50°42' W 001°59'0 0.0
2016-Jan-31 03:33N 50°42' W 001°59'0 0.0
2016-Jan-31 02:33N 50°42' W 001°59'0 0.0
2016-Jan-31 01:33N 50°42' W 001°59'0 0.0
2016-Jan-31 00:33N 50°42' W 001°59'0 0.0
2016-Jan-30 23:33N 50°42' W 001°59'0 0.0
2016-Jan-30 22:33N 50°42' W 001°59'0 0.1
2016-Jan-30 21:33N 50°42' W 001°60'1211.6
2016-Jan-30 20:33N 50°32' W 001°53'5 0.5
2016-Jan-30 09:30N 50°27' W 001°50'1516.1
2016-Jan-30 08:34N 50°41' W 001°57'2 1.9
2016-Jan-30 07:33N 50°42' W 001°59'0 0.0
2016-Jan-30 06:33N 50°42' W 001°59'0 0.0
2016-Jan-30 05:33N 50°42' W 001°59'0 0.0
2016-Jan-30 04:33N 50°42' W 001°59'0 0.0
2016-Jan-30 03:33N 50°42' W 001°59'0 0.0
2016-Jan-30 02:33N 50°42' W 001°59'0 0.0
2016-Jan-30 01:33N 50°42' W 001°59'0 0.0
2016-Jan-30 00:33N 50°42' W 001°59'0 0.0
2016-Jan-29 23:33N 50°42' W 001°59'0 0.0
2016-Jan-29 22:33N 50°42' W 001°59'0 0.1
2016-Jan-29 21:33N 50°42' W 001°60'  

Dump ship's entire track history